createdAt,value
2014-07-10T00:00:14.837Z,99989
2014-07-10T00:00:33.040Z,100000
2014-07-10T00:00:50.602Z,99983
2014-07-10T00:01:08.167Z,99986
2014-07-10T00:01:25.104Z,99989
2014-07-10T00:01:42.808Z,99995
2014-07-10T00:02:00.996Z,99995
2014-07-10T00:02:18.684Z,99998
2014-07-10T00:02:37.027Z,99995
2014-07-10T00:02:54.590Z,100009
2014-07-10T00:03:12.780Z,99998
2014-07-10T00:03:31.280Z,99995
2014-07-10T00:03:48.843Z,99995
2014-07-10T00:04:07.031Z,100003
2014-07-10T00:04:23.984Z,100003
2014-07-10T00:04:41.047Z,100000
2014-07-10T00:04:58.625Z,100000
2014-07-10T00:05:16.191Z,100000
2014-07-10T00:05:33.128Z,100006
2014-07-10T00:05:51.456Z,99998
2014-07-10T00:06:09.644Z,100003
2014-07-10T00:06:27.208Z,100006
2014-07-10T00:06:45.411Z,100000
2014-07-10T00:07:02.974Z,100012
2014-07-10T00:07:21.163Z,99995
2014-07-10T00:07:39.491Z,99998
2014-07-10T00:07:57.679Z,100003
2014-07-10T00:08:15.882Z,99998
2014-07-10T00:08:33.447Z,100006
2014-07-10T00:08:51.634Z,99998
2014-07-10T00:09:08.572Z,100000
2014-07-10T00:09:26.261Z,100006
2014-07-10T00:09:43.824Z,99998
2014-07-10T00:10:01.402Z,99995
2014-07-10T00:10:19.589Z,99995
2014-07-10T00:10:37.779Z,99995
2014-07-10T00:11:17.779Z,100000
2014-07-10T00:11:35.984Z,99989
2014-07-10T00:11:53.546Z,99992
2014-07-10T00:12:11.749Z,100003
2014-07-10T00:12:29.937Z,99992
2014-07-10T00:12:48.126Z,100003
2014-07-10T00:13:05.705Z,100000
2014-07-10T00:13:24.033Z,100006
2014-07-10T00:13:42.363Z,100006
2014-07-10T00:13:59.941Z,99992
2014-07-10T00:14:18.128Z,100003
2014-07-10T00:14:35.707Z,100003
2014-07-10T00:14:53.271Z,100000
2014-07-10T00:15:11.490Z,99995
2014-07-10T00:15:29.677Z,100003
2014-07-10T00:15:47.351Z,100003
2014-07-10T00:16:05.523Z,99995
2014-07-10T00:16:23.086Z,100003
2014-07-10T00:16:41.289Z,100003
2014-07-10T00:16:58.853Z,99998
2014-07-10T00:17:17.056Z,99998
2014-07-10T00:17:34.619Z,99995
2014-07-10T00:17:52.808Z,99989
2014-07-10T00:18:10.371Z,99986
2014-07-10T00:18:28.574Z,99995
2014-07-10T00:18:46.902Z,99995
2014-07-10T00:19:05.217Z,99992
2014-07-10T00:19:22.795Z,99995
2014-07-10T00:19:40.982Z,99989
2014-07-10T00:19:59.187Z,99998
2014-07-10T00:20:16.750Z,99992
2014-07-10T00:20:34.953Z,99998
2014-07-10T00:20:53.140Z,99983
2014-07-10T00:21:10.705Z,99992
2014-07-10T00:21:29.033Z,99998
2014-07-10T00:21:46.596Z,100003
2014-07-10T00:22:04.176Z,99995
2014-07-10T00:22:21.738Z,99992
2014-07-10T00:22:39.926Z,99995
2014-07-10T00:22:57.004Z,100000
2014-07-10T00:23:15.193Z,99998
2014-07-10T00:23:32.896Z,99986
2014-07-10T00:23:50.600Z,100000
2014-07-10T00:24:08.805Z,100003
2014-07-10T00:24:26.383Z,100003
2014-07-10T00:24:44.711Z,99998
2014-07-10T00:25:02.273Z,100000
2014-07-10T00:25:19.838Z,99998
2014-07-10T00:25:37.541Z,99989
2014-07-10T00:25:55.744Z,99995
2014-07-10T00:26:13.434Z,99986
2014-07-10T00:26:31.637Z,99992
2014-07-10T00:26:49.590Z,99986
2014-07-10T00:27:07.277Z,99992
2014-07-10T00:27:24.858Z,99992
2014-07-10T00:27:43.186Z,99995
2014-07-10T00:28:00.748Z,99995
2014-07-10T00:28:18.453Z,99989
2014-07-10T00:28:36.641Z,99995
2014-07-10T00:28:54.203Z,99989
2014-07-10T00:29:11.156Z,99995
2014-07-10T00:29:28.721Z,99992
2014-07-10T00:29:46.283Z,99995
2014-07-10T00:30:03.862Z,99992
2014-07-10T00:30:22.051Z,99995
2014-07-10T00:30:39.629Z,100003
2014-07-10T00:30:57.207Z,99998
2014-07-10T00:31:14.145Z,99986
2014-07-10T00:31:31.709Z,99998
2014-07-10T00:31:49.897Z,99998
2014-07-10T00:32:06.975Z,99989
2014-07-10T00:32:24.537Z,99992
2014-07-10T00:32:42.227Z,99995
2014-07-10T00:32:59.789Z,99995
2014-07-10T00:33:17.993Z,99992
2014-07-10T00:33:35.555Z,99989
2014-07-10T00:33:52.496Z,99992
2014-07-10T00:34:10.683Z,99995
2014-07-10T00:34:28.386Z,99998
2014-07-10T00:34:45.950Z,99995
2014-07-10T00:35:03.528Z,99989
2014-07-10T00:35:21.856Z,99995
2014-07-10T00:35:40.059Z,100009
2014-07-10T00:35:56.999Z,100000
2014-07-10T00:36:15.186Z,99995
2014-07-10T00:36:32.124Z,100000
2014-07-10T00:36:50.455Z,99998
2014-07-10T00:37:08.658Z,99998
2014-07-10T00:37:26.361Z,100000
2014-07-10T00:37:44.064Z,99992
2014-07-10T00:38:01.628Z,100006
2014-07-10T00:38:19.956Z,99995
2014-07-10T00:38:37.518Z,99995
2014-07-10T00:38:55.084Z,100006
2014-07-10T00:39:13.287Z,99995
2014-07-10T00:39:31.490Z,99992
2014-07-10T00:39:49.818Z,100000
2014-07-10T00:40:08.163Z,99995
2014-07-10T00:40:25.725Z,100006
2014-07-10T00:40:43.913Z,99998
2014-07-10T00:41:01.477Z,100000
2014-07-10T00:41:19.805Z,99992
2014-07-10T00:41:37.384Z,99995
2014-07-10T00:41:55.571Z,99989
2014-07-10T00:42:13.136Z,100000
2014-07-10T00:42:30.714Z,99995
2014-07-10T00:42:48.276Z,99998
2014-07-10T00:43:05.842Z,100006
2014-07-10T00:43:24.045Z,100003
2014-07-10T00:43:42.232Z,100003
2014-07-10T00:44:00.342Z,99995
2014-07-10T00:44:18.594Z,100003
2014-07-10T00:44:34.891Z,99998
2014-07-10T07:29:02.829Z,100110
2014-07-10T07:29:21.018Z,100095
2014-07-10T07:29:39.222Z,100089
2014-07-10T07:29:56.800Z,100089
2014-07-10T07:30:13.738Z,100089
2014-07-10T07:30:31.941Z,100095
2014-07-10T07:30:50.504Z,100098
2014-07-10T07:31:09.582Z,100089
2014-07-10T07:31:27.162Z,100083
2014-07-10T07:31:44.725Z,100083
2014-07-10T07:32:02.303Z,100092
2014-07-10T07:32:20.509Z,100089
2014-07-10T07:32:38.712Z,100095
2014-07-10T07:32:57.040Z,100092
2014-07-10T07:33:14.649Z,100083
2014-07-10T07:33:32.855Z,100095
2014-07-10T07:33:50.417Z,100095
2014-07-10T07:34:08.136Z,100101
2014-07-10T07:34:25.732Z,100095
2014-07-10T07:34:44.075Z,100083
2014-07-10T07:35:02.278Z,100089
2014-07-10T07:35:19.872Z,100086
2014-07-10T07:35:38.062Z,100098
2014-07-10T07:35:56.280Z,100095
2014-07-10T07:36:13.843Z,100092
2014-07-10T07:36:32.047Z,100089
2014-07-10T07:36:49.750Z,100095
2014-07-10T07:37:07.500Z,100101
2014-07-10T07:37:25.703Z,100095
2014-07-10T07:37:43.893Z,100098
2014-07-10T07:38:01.471Z,100101
2014-07-10T07:38:17.799Z,100098
2014-07-10T07:38:35.365Z,100107
2014-07-10T07:38:52.318Z,100110
2014-07-10T07:39:10.505Z,100098
2014-07-10T07:39:28.708Z,100098
2014-07-10T07:39:45.648Z,100098
2014-07-10T07:40:03.992Z,100104
2014-07-10T07:40:22.179Z,100095
2014-07-10T07:40:40.399Z,100101
2014-07-10T07:40:58.102Z,100107
2014-07-10T07:41:16.305Z,100110
2014-07-10T07:41:34.633Z,100101
2014-07-10T07:41:51.713Z,100110
2014-07-10T07:42:09.916Z,100110
2014-07-10T07:42:28.120Z,100104
2014-07-10T07:43:15.810Z,100107
2014-07-10T07:43:34.154Z,100101
2014-07-10T07:43:51.091Z,100101
2014-07-10T07:44:08.796Z,100110
2014-07-10T07:44:27.031Z,100107
2014-07-10T07:44:46.484Z,100107
2014-07-10T07:45:05.937Z,100107
2014-07-10T07:45:23.502Z,100124
2014-07-10T07:45:40.595Z,100110
2014-07-10T07:45:58.158Z,100107
2014-07-10T07:46:16.364Z,100118
2014-07-10T07:46:33.942Z,100110
2014-07-10T07:46:51.520Z,100101
2014-07-10T07:47:09.723Z,100098
2014-07-10T07:47:27.927Z,100101
2014-07-10T07:47:45.490Z,100112
2014-07-10T07:48:03.834Z,100107
2014-07-10T07:48:22.040Z,100107
2014-07-10T07:48:40.368Z,100101
2014-07-10T07:48:58.274Z,100110
2014-07-10T07:49:15.227Z,100104
2014-07-10T07:49:32.806Z,100104
2014-07-10T07:49:49.744Z,100112
2014-07-10T07:50:06.697Z,100110
2014-07-10T07:50:23.637Z,100112
2014-07-10T07:50:41.215Z,100112
2014-07-10T07:50:58.793Z,100104
2014-07-10T07:51:15.730Z,100110
2014-07-10T07:51:33.935Z,100112
2014-07-10T07:51:52.279Z,100112
2014-07-10T07:52:10.482Z,100107
2014-07-10T07:52:28.701Z,100107
2014-07-10T07:52:45.782Z,100110
2014-07-10T07:53:04.017Z,100112
2014-07-10T07:53:22.220Z,100104
2014-07-10T07:53:40.424Z,100112
2014-07-10T07:53:58.611Z,100115
2014-07-10T07:54:16.830Z,100104
2014-07-10T07:54:35.018Z,100110
2014-07-10T07:54:52.598Z,100118
2014-07-10T07:55:10.801Z,100115
2014-07-10T07:55:29.004Z,100104
2014-07-10T07:55:46.568Z,100107
2014-07-10T07:56:05.272Z,100110
2014-07-10T07:56:23.631Z,100112
2014-07-10T07:56:41.834Z,100107
2014-07-10T07:57:00.039Z,100112
2014-07-10T07:57:18.258Z,100121
2014-07-10T07:57:36.602Z,100110
2014-07-10T07:57:54.136Z,100104
2014-07-10T07:58:11.714Z,100112
2014-07-10T07:58:29.902Z,100112
2014-07-10T07:58:48.105Z,100107
2014-07-10T07:59:06.450Z,100104
2014-07-10T07:59:24.013Z,100118
2014-07-10T07:59:42.216Z,100118
2014-07-10T07:59:59.859Z,100118
2014-07-10T08:00:18.062Z,100115
2014-07-10T08:00:36.265Z,100124
2014-07-10T08:00:53.827Z,100121
2014-07-10T08:01:11.407Z,100121
2014-07-10T08:01:29.610Z,100115
2014-07-10T08:01:47.813Z,100118
2014-07-10T08:02:05.519Z,100118
2014-07-10T08:02:23.722Z,100115
2014-07-10T08:02:40.675Z,100130
2014-07-10T08:02:56.988Z,100121
2014-07-10T08:03:14.693Z,100127
2014-07-10T08:03:32.271Z,100124
2014-07-10T08:03:49.974Z,100124
2014-07-10T08:04:38.382Z,100115
2014-07-10T08:04:55.335Z,100121
2014-07-10T08:05:11.648Z,100115
2014-07-10T08:05:28.601Z,100118
2014-07-10T08:05:46.181Z,100115
2014-07-10T08:06:04.384Z,100121
2014-07-10T08:06:21.978Z,100110
2014-07-10T08:06:39.541Z,100115
2014-07-10T08:06:57.747Z,100113
2014-07-10T08:07:15.950Z,100115
2014-07-10T08:07:34.294Z,100115
2014-07-10T08:07:51.857Z,100118
2014-07-10T08:08:08.810Z,100118
2014-07-10T08:08:27.029Z,100115
2014-07-10T08:08:44.607Z,100127
2014-07-10T08:09:01.563Z,100118
2014-07-10T08:09:19.891Z,100110
2014-07-10T08:09:37.469Z,100121
2014-07-10T08:09:55.048Z,100121
2014-07-10T08:10:12.612Z,100115
2014-07-10T08:10:30.331Z,100124
2014-07-10T08:10:48.628Z,100113
2014-07-10T08:11:08.208Z,100115
2014-07-10T08:11:26.411Z,100124
2014-07-10T08:11:44.973Z,100115
2014-07-10T08:12:02.723Z,100115
2014-07-10T08:12:21.069Z,100113
2014-07-10T08:12:39.272Z,100124
2014-07-10T08:12:57.600Z,100118
2014-07-10T08:13:15.821Z,100121
2014-07-10T08:13:34.024Z,100118
2014-07-10T08:13:50.337Z,100124
2014-07-10T08:14:08.696Z,100124
2014-07-10T08:14:26.276Z,100130
2014-07-10T08:14:43.839Z,100130
2014-07-10T08:15:01.417Z,100127
2014-07-10T08:15:19.622Z,100130
2014-07-10T08:15:37.200Z,100127
2014-07-10T08:15:54.778Z,100130
2014-07-10T08:16:12.356Z,100124
2014-07-10T08:16:30.562Z,100115
2014-07-10T08:16:48.233Z,100127
2014-07-10T08:17:05.171Z,100124
2014-07-10T08:17:22.829Z,100133
2014-07-10T08:17:41.017Z,100130
2014-07-10T08:17:59.220Z,100115
2014-07-10T08:18:17.439Z,100127
2014-07-10T08:18:35.644Z,100127
2014-07-10T08:18:53.222Z,100127
2014-07-10T08:19:11.425Z,100124
2014-07-10T08:19:29.005Z,100118
2014-07-10T08:19:47.208Z,100124
2014-07-10T08:20:04.161Z,100118
2014-07-10T08:20:21.739Z,100115
2014-07-10T08:20:39.945Z,100118
2014-07-10T08:20:58.148Z,100121
2014-07-10T08:21:16.351Z,100121
2014-07-10T08:21:34.556Z,100124
2014-07-10T08:21:53.337Z,100127
2014-07-10T08:22:11.556Z,100130
2014-07-10T08:22:29.118Z,100127
2014-07-10T08:22:46.699Z,100130
2014-07-10T08:23:04.902Z,100127
2014-07-10T08:23:22.620Z,100139
2014-07-10T08:23:40.827Z,100142
2014-07-10T08:23:59.014Z,100136
2014-07-10T08:24:17.233Z,100136
2014-07-10T08:24:35.436Z,100124
2014-07-10T08:24:53.765Z,100133
2014-07-10T08:25:11.968Z,100139
2014-07-10T08:25:30.171Z,100127
2014-07-10T08:25:48.376Z,100139
2014-07-10T08:26:05.955Z,100127
2014-07-10T08:26:23.033Z,100136
2014-07-10T08:26:40.736Z,100139
2014-07-10T08:26:58.957Z,100124
2014-07-10T08:27:16.675Z,100133
2014-07-10T08:27:34.878Z,100136
2014-07-10T08:27:53.084Z,100139
2014-07-10T08:28:11.427Z,100136
2014-07-10T08:28:28.990Z,100136
2014-07-10T08:28:47.193Z,100139
2014-07-10T08:29:04.773Z,100130
2014-07-10T08:29:22.351Z,100136
2014-07-10T08:29:39.929Z,100142
2014-07-10T08:29:58.134Z,100142
2014-07-10T08:30:16.338Z,100130
2014-07-10T08:30:34.681Z,100136
2014-07-10T08:30:52.884Z,100136
2014-07-10T08:31:11.261Z,100139
2014-07-10T08:31:29.465Z,100133
2014-07-10T08:31:47.668Z,100144
2014-07-10T08:32:03.982Z,100136
2014-07-10T08:32:22.185Z,100127
2014-07-10T08:32:40.388Z,100136
2014-07-10T08:32:57.967Z,100139
2014-07-10T08:33:16.000Z,100136
2014-07-10T08:33:34.312Z,100136
2014-07-10T08:33:52.656Z,100133
2014-07-10T08:34:10.846Z,100124
2014-07-10T08:34:28.439Z,100127
2014-07-10T08:34:46.642Z,100142
2014-07-10T08:35:04.846Z,100136
2014-07-10T08:35:21.926Z,100147
2014-07-10T08:35:39.504Z,100144
2014-07-10T08:35:57.082Z,100149
2014-07-10T08:36:14.662Z,100133
2014-07-10T08:36:31.725Z,100136
2014-07-10T08:36:49.303Z,100142
2014-07-10T08:37:06.881Z,100136
2014-07-10T08:37:23.836Z,100139
2014-07-10T08:37:42.039Z,100133
2014-07-10T08:38:00.242Z,100136
2014-07-10T08:38:18.447Z,100136
2014-07-10T08:38:36.650Z,100136
2014-07-10T08:38:54.854Z,100139
2014-07-10T08:39:12.432Z,100136
2014-07-10T08:39:30.637Z,100133
2014-07-10T08:39:48.840Z,100133
2014-07-10T08:40:07.027Z,100133
2014-07-10T08:40:23.359Z,100136
2014-07-10T08:40:40.437Z,100130
2014-07-10T08:40:58.952Z,100133
2014-07-10T08:41:16.484Z,100133
2014-07-10T08:41:34.828Z,100144
2014-07-10T08:41:53.031Z,100139
2014-07-10T08:42:11.235Z,100136
2014-07-10T08:42:29.487Z,100136
2014-07-10T08:42:47.049Z,100130
2014-07-10T08:43:04.627Z,100130
2014-07-10T08:43:22.830Z,100136
2014-07-10T08:43:40.410Z,100133
2014-07-10T08:43:58.614Z,100127
2014-07-10T08:44:16.176Z,100139
2014-07-10T08:44:33.131Z,100136
2014-07-10T08:44:50.069Z,100139
2014-07-10T08:45:07.647Z,100127
2014-07-10T08:45:25.850Z,100139
2014-07-10T08:45:43.493Z,100136
2014-07-10T08:46:01.071Z,100136
2014-07-10T08:46:19.274Z,100133
2014-07-10T08:46:37.479Z,100139
2014-07-10T08:46:55.682Z,100139
2014-07-10T08:47:13.385Z,100136
2014-07-10T08:47:31.588Z,100136
2014-07-10T08:47:49.918Z,100136
2014-07-10T08:48:07.497Z,100133
2014-07-10T08:48:25.075Z,100133
2014-07-10T08:48:41.389Z,100136
2014-07-10T08:48:58.561Z,100147
2014-07-10T08:49:16.889Z,100147
2014-07-10T08:49:34.483Z,100144
2014-07-10T08:49:52.814Z,100136
2014-07-10T08:50:10.439Z,100139
2014-07-10T08:50:28.033Z,100142
2014-07-10T08:50:46.363Z,100139
2014-07-10T08:51:03.941Z,100139
2014-07-10T08:51:21.519Z,100142
2014-07-10T08:51:39.097Z,100144
2014-07-10T08:51:57.301Z,100136
2014-07-10T08:52:15.505Z,100136
2014-07-10T08:52:33.098Z,100133
2014-07-10T08:52:50.053Z,100147
2014-07-10T08:53:07.616Z,100144
2014-07-10T08:53:25.319Z,100133
2014-07-10T08:53:43.663Z,100127
2014-07-10T08:54:01.993Z,100142
2014-07-10T08:54:20.337Z,100142
2014-07-10T08:54:37.899Z,100147
2014-07-10T08:54:55.479Z,100142
2014-07-10T08:55:13.073Z,100147
2014-07-10T08:55:31.276Z,100133
2014-07-10T08:55:49.464Z,100149
2014-07-10T08:56:07.669Z,100147
2014-07-10T08:56:25.888Z,100147
2014-07-10T08:56:44.091Z,100142
2014-07-10T08:57:01.655Z,100133
2014-07-10T08:57:19.233Z,100147
2014-07-10T08:57:37.421Z,100145
2014-07-10T08:57:55.140Z,100147
2014-07-10T08:58:12.705Z,100152
2014-07-10T08:58:31.189Z,100147
2014-07-10T08:58:49.471Z,100142
2014-07-10T08:59:07.254Z,100142
2014-07-10T08:59:25.582Z,100147
2014-07-10T08:59:42.035Z,100147
2014-07-10T08:59:59.613Z,100145
2014-07-10T09:00:17.817Z,100155
2014-07-10T09:00:35.396Z,100147
2014-07-10T09:00:52.333Z,100158
2014-07-10T09:01:10.538Z,100155
2014-07-10T09:01:28.741Z,100139
2014-07-10T09:01:46.444Z,100149
2014-07-10T09:02:03.523Z,100149
2014-07-10T09:02:21.728Z,100145
2014-07-10T09:02:39.306Z,100142
2014-07-10T09:02:56.868Z,100145
2014-07-10T09:03:13.808Z,100147
2014-07-10T09:03:31.386Z,100147
2014-07-10T09:03:48.948Z,100147
2014-07-10T09:04:07.167Z,100139
2014-07-10T09:04:24.732Z,100152
2014-07-10T09:04:42.935Z,100152
2014-07-10T09:04:59.872Z,100145
2014-07-10T09:05:18.077Z,100142
2014-07-10T09:05:35.671Z,100145
2014-07-10T09:05:53.234Z,100152
2014-07-10T09:06:11.437Z,100142
2014-07-10T09:06:29.142Z,100133
2014-07-10T09:06:47.345Z,100152
2014-07-10T09:07:05.064Z,100145
2014-07-10T09:07:22.644Z,100145
2014-07-10T09:07:40.847Z,100145
2014-07-10T09:07:59.175Z,100147
2014-07-10T09:08:16.128Z,100142
2014-07-10T09:08:34.333Z,100139
2014-07-10T09:08:52.880Z,100133
2014-07-10T09:09:10.443Z,100145
2014-07-10T09:09:28.695Z,100145
2014-07-10T09:09:45.773Z,100139
2014-07-10T09:10:03.351Z,100139
2014-07-10T09:10:21.570Z,100142
2014-07-10T09:10:39.962Z,100133
2014-07-10T09:11:19.978Z,100147
2014-07-10T09:11:38.261Z,100145
2014-07-10T09:11:55.839Z,100139
2014-07-10T09:12:14.043Z,100139
2014-07-10T09:12:31.636Z,100130
2014-07-10T09:12:49.841Z,100133
2014-07-10T09:13:07.420Z,100133
2014-07-10T09:13:25.779Z,100130
2014-07-10T09:13:44.015Z,100124
2014-07-10T09:14:02.218Z,100133
2014-07-10T09:14:19.797Z,100130
2014-07-10T09:14:37.984Z,100124
2014-07-10T09:14:55.580Z,100130
2014-07-10T09:15:13.908Z,100133
2014-07-10T09:15:32.142Z,100139
2014-07-10T09:15:50.347Z,100136
2014-07-10T09:16:08.051Z,100136
2014-07-10T09:16:26.379Z,100136
2014-07-10T09:16:43.957Z,100139
2014-07-10T09:17:02.162Z,100142
2014-07-10T09:17:19.115Z,100139
2014-07-10T09:17:36.693Z,100152
2014-07-10T09:17:54.259Z,100133
2014-07-10T09:18:12.462Z,100122
2014-07-10T09:18:30.040Z,100121
2014-07-10T09:18:48.243Z,100142
2014-07-10T09:19:05.822Z,100133
2014-07-10T09:19:24.010Z,100130
2014-07-10T09:19:41.650Z,100147
2014-07-10T09:19:59.230Z,100133
2014-07-10T09:20:16.934Z,100133
2014-07-10T09:20:35.137Z,100130
2014-07-10T09:20:53.340Z,100133
2014-07-10T09:21:11.546Z,100133
2014-07-10T09:21:29.733Z,100130
2014-07-10T09:21:47.937Z,100127
2014-07-10T09:22:05.641Z,100127
2014-07-10T09:22:21.969Z,100133
2014-07-10T09:22:39.531Z,100124
2014-07-10T09:22:57.109Z,100133
2014-07-10T09:23:14.050Z,100130
2014-07-10T09:23:32.378Z,100136
2014-07-10T09:23:50.722Z,100130
2014-07-10T09:24:09.050Z,100136
2014-07-10T09:24:27.411Z,100133
2014-07-10T09:24:44.489Z,100136
2014-07-10T09:25:02.193Z,100130
2014-07-10T09:25:20.523Z,100133
2014-07-10T09:25:38.741Z,100127
2014-07-10T09:25:56.945Z,100136
2014-07-10T09:26:15.148Z,100136
2014-07-10T09:26:32.728Z,100139
2014-07-10T09:26:50.290Z,100127
2014-07-10T09:27:08.009Z,100136
2014-07-10T09:27:26.214Z,100139
2014-07-10T09:27:44.542Z,100127
2014-07-10T09:28:02.730Z,100124
2014-07-10T09:28:20.324Z,100136
2014-07-10T09:28:37.904Z,100133
2014-07-10T09:28:56.122Z,100136
2014-07-10T09:29:14.310Z,100136
2014-07-10T09:29:31.937Z,100136
2014-07-10T09:29:49.515Z,100130
2014-07-10T09:30:07.718Z,100142
2014-07-10T09:30:25.921Z,100136
2014-07-10T09:30:44.125Z,100133
2014-07-10T09:31:01.704Z,100136
2014-07-10T09:31:50.113Z,100130
2014-07-10T09:32:08.316Z,100139
2014-07-10T09:32:25.988Z,100133
2014-07-10T09:32:43.037Z,100130
2014-07-10T09:33:00.615Z,100133
2014-07-10T09:33:18.880Z,100133
2014-07-10T09:33:37.084Z,100133
2014-07-10T09:33:54.664Z,100124
2014-07-10T09:34:10.976Z,100145
2014-07-10T09:34:29.179Z,100139
2014-07-10T09:34:46.759Z,100133
2014-07-10T09:35:04.322Z,100142
2014-07-10T09:35:21.931Z,100142
2014-07-10T09:35:39.009Z,100142
2014-07-10T09:35:56.574Z,100142
2014-07-10T09:36:14.152Z,100139
2014-07-10T09:36:32.355Z,100130
2014-07-10T09:36:49.918Z,100133
2014-07-10T09:37:08.138Z,100142
2014-07-10T09:37:25.717Z,100133
2014-07-10T09:37:42.654Z,100145
2014-07-10T09:37:58.969Z,100142
2014-07-10T09:38:17.156Z,100149
2014-07-10T09:38:34.875Z,100149
2014-07-10T09:38:52.453Z,100147
2014-07-10T09:39:09.533Z,100142
2014-07-10T09:39:27.236Z,100136
2014-07-10T09:39:45.439Z,100130
2014-07-10T09:40:03.644Z,100139
2014-07-10T09:40:21.207Z,100145
2014-07-10T09:40:38.285Z,100147
2014-07-10T09:40:55.863Z,100133
2014-07-10T09:41:14.192Z,100145
2014-07-10T09:41:31.770Z,100136
2014-07-10T09:41:49.974Z,100142
2014-07-10T09:42:07.679Z,100142
2014-07-10T09:42:25.882Z,100142
2014-07-10T09:42:44.069Z,100139
2014-07-10T09:43:00.397Z,100142
2014-07-10T09:43:17.478Z,100136
2014-07-10T09:43:34.431Z,100139
2014-07-10T09:43:51.368Z,100139
2014-07-10T09:44:08.965Z,100139
2014-07-10T09:44:26.543Z,100142
2014-07-10T09:44:44.871Z,100139
2014-07-10T09:45:02.449Z,100133
2014-07-10T09:45:20.248Z,100133
2014-07-10T09:45:37.998Z,100127
2014-07-10T09:45:56.186Z,100139
2014-07-10T09:46:14.406Z,100145
2014-07-10T09:46:32.735Z,100133
2014-07-10T09:46:50.313Z,100136
2014-07-10T09:47:07.875Z,100145
2014-07-10T09:47:24.814Z,100142
2014-07-10T09:47:43.017Z,100147
2014-07-10T09:48:01.220Z,100136
2014-07-10T09:48:19.425Z,100139
2014-07-10T09:48:37.613Z,100139
2014-07-10T09:48:55.972Z,100149
2014-07-10T09:49:14.175Z,100145
2014-07-10T09:49:31.881Z,100136
2014-07-10T09:49:50.084Z,100142
2014-07-10T09:50:07.662Z,100149
2014-07-10T09:50:25.868Z,100145
2014-07-10T09:50:42.805Z,100145
2014-07-10T09:51:01.024Z,100147
2014-07-10T09:51:19.211Z,100136
2014-07-10T09:51:37.415Z,100142
2014-07-10T09:51:55.619Z,100136
2014-07-10T09:52:13.322Z,100130
2014-07-10T09:52:30.261Z,100136
2014-07-10T09:52:48.464Z,100145
2014-07-10T09:53:06.058Z,100139
2014-07-10T09:53:23.636Z,100147
2014-07-10T09:53:40.591Z,100142
2014-07-10T09:53:58.185Z,100147
2014-07-10T09:54:15.748Z,100139
2014-07-10T09:54:33.954Z,100145
2014-07-10T09:54:51.672Z,100136
2014-07-10T09:55:09.251Z,100136
2014-07-10T09:55:27.454Z,100136
2014-07-10T09:55:45.159Z,100139
2014-07-10T09:56:03.362Z,100142
2014-07-10T09:56:21.565Z,100147
2014-07-10T09:56:39.895Z,100136
2014-07-10T09:56:58.114Z,100133
2014-07-10T09:57:16.317Z,100139
2014-07-10T09:57:34.520Z,100139
2014-07-10T09:57:51.491Z,100136
2014-07-10T09:58:09.069Z,100142
2014-07-10T09:58:26.663Z,100145
2014-07-10T09:58:44.993Z,100139
2014-07-10T09:59:03.196Z,100145
2014-07-10T09:59:20.274Z,100145
2014-07-10T09:59:37.852Z,100136
2014-07-10T09:59:56.056Z,100136
2014-07-10T10:00:14.260Z,100133
2014-07-10T10:00:32.463Z,100136
2014-07-10T10:00:50.669Z,100142
2014-07-10T10:01:08.872Z,100145
2014-07-10T10:01:26.450Z,100145
2014-07-10T10:01:42.778Z,100147
2014-07-10T10:02:00.343Z,100136
2014-07-10T10:02:16.655Z,100142
2014-07-10T10:02:34.374Z,100142
2014-07-10T10:02:52.577Z,100142
2014-07-10T10:03:10.798Z,100142
2014-07-10T10:03:28.985Z,100142
2014-07-10T10:03:47.204Z,100136
2014-07-10T10:04:04.769Z,100149
2014-07-10T10:04:22.487Z,100133
2014-07-10T10:04:40.190Z,100145
2014-07-10T10:04:58.394Z,100142
2014-07-10T10:05:15.974Z,100147
2014-07-10T10:05:33.536Z,100145
2014-07-10T10:05:51.896Z,100147
2014-07-10T10:06:09.475Z,100130
2014-07-10T10:06:27.178Z,100145
2014-07-10T10:06:45.381Z,100136
2014-07-10T10:07:03.725Z,100142
2014-07-10T10:07:21.305Z,100130
2014-07-10T10:07:39.633Z,100127
2014-07-10T10:07:57.836Z,100139
2014-07-10T10:08:14.777Z,100139
2014-07-10T10:08:32.355Z,100142
2014-07-10T10:08:50.573Z,100142
2014-07-10T10:09:08.761Z,100142
2014-07-10T10:09:26.341Z,100145
2014-07-10T10:09:44.544Z,100142
2014-07-10T10:10:02.872Z,100139
2014-07-10T10:10:21.312Z,100142
2014-07-10T10:10:38.890Z,100145
2014-07-10T10:10:57.093Z,100142
2014-07-10T10:11:14.656Z,100139
2014-07-10T10:11:32.861Z,100145
2014-07-10T10:11:51.064Z,100133
2014-07-10T10:12:07.376Z,100147
2014-07-10T10:12:25.706Z,100142
2014-07-10T10:12:43.769Z,100142
2014-07-10T10:13:01.800Z,100145
2014-07-10T10:13:19.988Z,100139
2014-07-10T10:13:38.192Z,100142
2014-07-10T10:13:55.895Z,100142
2014-07-10T10:14:13.457Z,100145
2014-07-10T10:14:31.664Z,100136
2014-07-10T10:14:49.867Z,100133
2014-07-10T10:15:06.335Z,100136
2014-07-10T10:15:23.273Z,100136
2014-07-10T10:15:41.462Z,100133
2014-07-10T10:15:58.431Z,100139
2014-07-10T10:16:15.369Z,100133
2014-07-10T10:16:32.933Z,100147
2014-07-10T10:16:51.277Z,100133
2014-07-10T10:17:08.855Z,100149
2014-07-10T10:17:27.043Z,100145
2014-07-10T10:17:45.248Z,100145
2014-07-10T10:18:02.826Z,100136
2014-07-10T10:18:20.404Z,100142
2014-07-10T10:18:37.484Z,100145
2014-07-10T10:18:55.047Z,100139
2014-07-10T10:19:43.376Z,100149
2014-07-10T10:20:01.579Z,100145
2014-07-10T10:20:19.157Z,100145
2014-07-10T10:20:37.360Z,100133
2014-07-10T10:20:55.066Z,100142
2014-07-10T10:21:12.769Z,100142
2014-07-10T10:21:31.316Z,100145
2014-07-10T10:21:49.521Z,100130
2014-07-10T10:22:07.084Z,100139
2014-07-10T10:22:24.162Z,100139
2014-07-10T10:22:40.631Z,100142
2014-07-10T10:22:58.836Z,100142
2014-07-10T10:23:16.398Z,100139
2014-07-10T10:23:34.117Z,100139
2014-07-10T10:23:52.320Z,100149
2014-07-10T10:24:10.025Z,100145
2014-07-10T10:24:26.978Z,100139
2014-07-10T10:24:45.182Z,100136
2014-07-10T10:25:03.387Z,100147
2014-07-10T10:25:20.949Z,100145
2014-07-10T10:25:38.637Z,100145
2014-07-10T10:25:56.840Z,100136
2014-07-10T10:26:14.420Z,100130
2014-07-10T10:26:31.998Z,100136
2014-07-10T10:26:49.670Z,100133
2014-07-10T10:27:07.859Z,100139
2014-07-10T10:27:24.813Z,100130
2014-07-10T10:27:43.016Z,100142
2014-07-10T10:28:01.359Z,100136
2014-07-10T10:28:19.565Z,100133
2014-07-10T10:28:37.190Z,100149
2014-07-10T10:28:54.783Z,100136
2014-07-10T10:29:12.363Z,100133
2014-07-10T10:29:29.942Z,100139
2014-07-10T10:29:48.145Z,100136
2014-07-10T10:30:05.723Z,100142
2014-07-10T10:30:23.912Z,100149